Chicago, IL (60617)

7:24 PM CST on January 25, 2015 (GMT -0600)
Morgan Park | Change Station
CLOSE
Current Station
Personal Weather Station
Location: Chicago, IL
Elevation: 616 ft
Nearby Weather Stations

Elev 616 ft 41.69 °N, 87.69 °W | Updated 1 minute ago

Overcast
Overcast
28.4 °F
Feels Like 21 °F
N
7.0
Wind Variable Wind from NE
Gusts 7.0 mph

Today
High -- | Low -- °F
--% Chance of Precip.
Yesterday
High -- | Low -- °F
Precip. -- in
7:08 AM 4:56 PM
Waxing Crescent, 37% visible
Pressure 29.93 in
Visibility 7.0 miles
Clouds Overcast 3700 ft
Windchill 21 °F
Dew Point 23 °F
Humidity 80%
Rainfall 0.07 in
Snow Depth Not available.
UV 0.0 out of 12
Pollen .10 out of 12
Air Quality Not available.
Flu Activity Not available.
METAR KGYY 252345Z 02012G25KT 7SM OVC037 M02/M07 A2993

More Conditions Fewer Conditions

Pressure 29.93 in
Visibility 7.0 miles
Clouds Overcast 3700 ft
Windchill 21 °F
Dew Point 23 °F
Humidity 80%
Rainfall 0.07 in
Snow Depth Not available.
UV 0.0 out of 12
Pollen .10 out of 12
Air Quality Not available.
Flu Activity Not available.
METAR KGYY 252345Z 02012G25KT 7SM OVC037 M02/M07 A2993

More Conditions Fewer Conditions

10-Day Weather Forecast

Almanac

Astronomy

Jan. 25, 2015 Rise Set
Actual Time
Civil Twilight
Nautical Twilight
Astronomical Twilight
Moon
Length of Visible Light
Length of Day
Tomorrow will be .
, % of the Moon is Illuminated

Today's Extremes

State Highs State Lows

Community

WunderPhotos

Upload Photos

1,790,032 photos uploaded!

WunderBlogs® & News

Nearby

Air Quality

  Air Quality AQ Index Pollutant
Not available.

Snow Depth

Station Depth Elevation

Earthquake Activity

City Distance Mag. Time & Date
Minimum magnitude displayed is 2.5.

Coastal Water Temperatures

Place Temperature

Nearby Weather Stations